Time;durP1;ratioP1;P1;durP2;ratioP2;P2;SDS_P1;SDS_P2;PMS_P1;PMS_P2;Temp;Humidity;BMP_temperature;BMP_pressure;BME280_temperature;BME280_humidity;BME280_pressure;Samples;Min_cycle;Max_cycle;Signal;HPM_P1;HPM_P2
2022/03/10 00:01:28;;;;;;;0.10;0.10;;;4.80;63.20;;;;;;5046765;28;20489;-77
2022/03/10 00:03:54;;;;;;;0.52;0.52;;;4.70;63.20;;;;;;5042666;28;20037;-77
2022/03/10 00:06:19;;;;;;;0.60;0.60;;;4.70;64.20;;;;;;5047296;28;20044;-78
2022/03/10 00:08:45;;;;;;;0.15;0.15;;;4.70;63.20;;;;;;5039264;28;20032;-77
2022/03/10 00:11:11;;;;;;;0.15;0.15;;;4.60;64.10;;;;;;5043317;28;20174;-78
2022/03/10 00:13:36;;;;;;;0.20;0.20;;;4.60;65.20;;;;;;5044187;28;20115;-78
2022/03/10 00:16:02;;;;;;;0.10;0.10;;;4.60;65.70;;;;;;5044624;28;20071;-78
2022/03/10 00:18:28;;;;;;;1.17;1.13;;;4.50;66.00;;;;;;5044000;28;20501;-78
2022/03/10 00:20:53;;;;;;;7.57;5.80;;;4.60;68.40;;;;;;5044812;28;20588;-77
2022/03/10 00:23:19;;;;;;;4.15;3.92;;;4.60;68.50;;;;;;5045226;28;20033;-77
2022/03/10 00:25:45;;;;;;;0.38;0.38;;;4.50;68.30;;;;;;5041437;28;20030;-78
2022/03/10 00:28:10;;;;;;;0.65;0.65;;;4.40;69.00;;;;;;5056149;28;20032;-77
2022/03/10 00:30:36;;;;;;;0.10;0.10;;;4.50;70.70;;;;;;5044293;28;20047;-79
2022/03/10 00:33:02;;;;;;;0.70;0.70;;;4.50;71.20;;;;;;5044142;28;20021;-78
2022/03/10 00:35:29;;;;;;;3.30;3.10;;;4.50;70.30;;;;;;5039519;28;20081;-78
2022/03/10 00:37:55;;;;;;;1.65;1.48;;;4.50;71.40;;;;;;5046253;28;20635;-78
2022/03/10 00:40:21;;;;;;;0.10;0.10;;;4.50;72.30;;;;;;5043697;28;20021;-78
2022/03/10 00:42:48;;;;;;;0.32;0.32;;;4.50;72.70;;;;;;5024281;28;20040;-77
2022/03/10 00:45:15;;;;;;;1.48;1.48;;;4.40;73.80;;;;;;5044214;28;20025;-79
2022/03/10 00:47:41;;;;;;;0.25;0.25;;;4.30;74.90;;;;;;5046129;28;20122;-78
2022/03/10 00:50:08;;;;;;;0.10;0.10;;;4.30;76.60;;;;;;5044917;28;20063;-79
2022/03/10 00:52:39;;;;;;;0.10;0.10;;;4.30;78.00;;;;;;5038486;28;20036;-79
2022/03/10 00:55:06;;;;;;;1.88;1.75;;;4.20;79.20;;;;;;5042795;28;20221;-80
2022/03/10 00:57:31;;;;;;;4.47;4.18;;;4.20;78.90;;;;;;5041957;28;20072;-77
2022/03/10 00:59:57;;;;;;;0.45;0.45;;;4.20;79.90;;;;;;5041669;28;20447;-78
2022/03/10 01:02:23;;;;;;;0.22;0.22;;;4.20;81.80;;;;;;5041453;28;20074;-79
2022/03/10 01:04:48;;;;;;;1.20;1.20;;;4.20;83.90;;;;;;5042781;28;20078;-77
2022/03/10 01:07:14;;;;;;;0.32;0.32;;;4.20;83.50;;;;;;5044262;28;20021;-78
2022/03/10 01:09:40;;;;;;;0.22;0.22;;;4.10;83.60;;;;;;5042694;28;20166;-78
2022/03/10 01:12:05;;;;;;;0.10;0.10;;;4.20;83.00;;;;;;5046163;28;20048;-78
2022/03/10 01:14:31;;;;;;;3.70;3.40;;;4.10;83.80;;;;;;5043998;28;20336;-78
2022/03/10 01:16:58;;;;;;;0.10;0.10;;;4.10;83.50;;;;;;5040409;28;20036;-79
2022/03/10 01:19:24;;;;;;;0.50;0.50;;;4.10;84.40;;;;;;5040184;28;20021;-77
2022/03/10 01:21:49;;;;;;;1.38;1.38;;;4.10;84.90;;;;;;5045374;28;20031;-79
2022/03/10 01:24:15;;;;;;;0.13;0.13;;;4.00;87.00;;;;;;5038089;28;20112;-77
2022/03/10 01:26:41;;;;;;;0.20;0.20;;;4.00;88.40;;;;;;5038947;28;20025;-77
2022/03/10 01:29:07;;;;;;;0.63;0.63;;;4.30;89.20;;;;;;5056440;28;20029;-77
2022/03/10 01:31:32;;;;;;;0.20;0.20;;;4.10;87.90;;;;;;5043332;28;20992;-77
2022/03/10 01:33:59;;;;;;;1.15;1.15;;;4.10;88.70;;;;;;5041971;28;20083;-78
2022/03/10 01:36:25;;;;;;;1.70;1.60;;;4.20;88.70;;;;;;5043214;28;20118;-78
2022/03/10 01:38:51;;;;;;;1.83;1.67;;;4.20;89.60;;;;;;5045105;28;20543;-78
2022/03/10 01:41:17;;;;;;;0.20;0.20;;;4.20;90.10;;;;;;5045937;28;20029;-78
2022/03/10 01:44:16;;;;;;;7.15;3.03;;;4.20;90.10;;;;;;5068414;22;20049;-80
2022/03/10 01:46:41;;;;;;;0.30;0.30;;;4.20;90.70;;;;;;5023832;28;20048;-79
2022/03/10 01:49:07;;;;;;;1.35;1.30;;;4.20;90.20;;;;;;5072723;28;20020;-79
2022/03/10 01:51:34;;;;;;;0.10;0.10;;;4.00;90.50;;;;;;5063690;28;20516;-80
2022/03/10 01:54:01;;;;;;;1.48;1.42;;;4.20;91.50;;;;;;5069189;28;20023;-80
2022/03/10 01:56:27;;;;;;;0.10;0.10;;;4.00;91.40;;;;;;5065547;28;20046;-79
2022/03/10 01:58:54;;;;;;;0.30;0.30;;;3.90;91.80;;;;;;5069399;28;20486;-79
2022/03/10 02:01:20;;;;;;;0.75;0.75;;;3.80;92.90;;;;;;5066768;28;20036;-80
2022/03/10 02:03:46;;;;;;;2.88;2.67;;;3.70;94.00;;;;;;5068332;28;20028;-80
2022/03/10 02:06:13;;;;;;;1.75;1.65;;;3.70;94.90;;;;;;5067298;28;20565;-80
2022/03/10 02:11:24;;;;;;;3.80;3.60;;;3.70;96.30;;;;;;5066340;28;20382;-80
2022/03/10 02:13:50;;;;;;;0.20;0.20;;;3.10;97.20;;;;;;5071933;28;20032;-80
2022/03/10 02:19:03;;;;;;;2.92;2.83;;;3.70;96.80;;;;;;5072388;28;20505;-81
2022/03/10 02:21:29;;;;;;;17.15;4.22;;;3.80;97.70;;;;;;5065049;28;20549;-79
2022/03/10 02:23:55;;;;;;;0.17;0.17;;;3.70;97.30;;;;;;5067393;28;20027;-81
2022/03/10 02:26:21;;;;;;;0.50;0.50;;;3.70;97.20;;;;;;5071873;28;20025;-80
2022/03/10 02:28:48;;;;;;;0.20;0.20;;;3.80;97.50;;;;;;5071779;28;20037;-80
2022/03/10 02:31:14;;;;;;;0.20;0.20;;;3.80;97.60;;;;;;5076332;28;20025;-80
2022/03/10 02:33:40;;;;;;;1.30;1.30;;;3.80;97.50;;;;;;5067790;28;20104;-80
2022/03/10 02:36:06;;;;;;;1.83;1.73;;;3.70;98.40;;;;;;5067337;28;20462;-79
2022/03/10 02:38:32;;;;;;;0.55;0.55;;;3.70;98.50;;;;;;5069654;28;20020;-80
2022/03/10 02:40:58;;;;;;;0.13;0.13;;;3.70;99.00;;;;;;5066392;28;20016;-80
2022/03/10 02:43:23;;;;;;;2.80;2.60;;;3.70;99.60;;;;;;5064008;28;20040;-80
2022/03/10 02:45:50;;;;;;;1.30;1.30;;;3.70;99.80;;;;;;5067388;28;20035;-79
2022/03/10 02:48:16;;;;;;;0.65;0.65;;;3.60;98.40;;;;;;5066206;28;20028;-80
2022/03/10 02:50:43;;;;;;;0.10;0.10;;;3.50;98.80;;;;;;5069276;28;20032;-80
2022/03/10 02:53:11;;;;;;;1.48;1.38;;;3.40;99.90;;;;;;5067481;28;20029;-78
2022/03/10 02:55:37;;;;;;;0.40;0.40;;;3.40;99.90;;;;;;5072317;28;20107;-80
2022/03/10 02:58:03;;;;;;;0.10;0.10;;;3.40;99.90;;;;;;5065805;28;20047;-80
2022/03/10 03:00:29;;;;;;;0.10;0.10;;;3.50;99.90;;;;;;5065226;28;20033;-80
2022/03/10 03:02:55;;;;;;;0.10;0.10;;;3.50;99.90;;;;;;5065422;28;20032;-80
2022/03/10 03:05:21;;;;;;;2.38;2.28;;;3.50;99.90;;;;;;5065993;28;20024;-80
2022/03/10 03:07:48;;;;;;;1.48;1.38;;;3.50;99.90;;;;;;5071575;28;20028;-80
2022/03/10 03:10:14;;;;;;;0.45;0.45;;;3.40;99.90;;;;;;5069820;28;20066;-79
2022/03/10 03:12:48;;;;;;;0.10;0.10;;;3.50;99.90;;;;;;5068643;28;20375;-80
2022/03/10 03:15:18;;;;;;;0.22;0.22;;;3.50;99.90;;;;;;5070803;28;20036;-80
2022/03/10 03:17:43;;;;;;;1.85;1.75;;;3.40;99.90;;;;;;5085244;28;20459;-80
2022/03/10 03:20:14;;;;;;;0.10;0.10;;;3.40;99.90;;;;;;5073716;28;20025;-80
2022/03/10 03:22:41;;;;;;;0.73;0.73;;;3.40;99.90;;;;;;5059241;28;20037;-80
2022/03/10 03:25:08;;;;;;;0.10;0.10;;;3.30;99.90;;;;;;5064887;28;20206;-80
2022/03/10 03:27:34;;;;;;;0.30;0.30;;;3.10;99.90;;;;;;5060087;28;20028;-79
2022/03/10 03:29:59;;;;;;;15.38;13.82;;;3.00;99.90;;;;;;5079636;28;20033;-78
2022/03/10 03:32:25;;;;;;;0.10;0.10;;;3.00;99.90;;;;;;5087640;28;20039;-79
2022/03/10 03:34:50;;;;;;;0.20;0.20;;;3.00;99.90;;;;;;5069526;28;20021;-81
2022/03/10 03:37:16;;;;;;;0.40;0.40;;;3.10;99.90;;;;;;5069593;28;20021;-79
2022/03/10 03:39:42;;;;;;;0.10;0.10;;;3.20;99.90;;;;;;5063938;28;20822;-78
2022/03/10 03:42:07;;;;;;;0.20;0.20;;;3.10;99.90;;;;;;5070518;28;20032;-80
2022/03/10 03:44:33;;;;;;;1.65;1.00;;;3.10;99.90;;;;;;5066553;28;20466;-80
2022/03/10 03:46:59;;;;;;;0.35;0.35;;;3.10;99.90;;;;;;5061791;28;20020;-80
2022/03/10 03:49:24;;;;;;;0.22;0.22;;;3.10;99.90;;;;;;5069550;28;20077;-79
2022/03/10 03:51:50;;;;;;;0.20;0.20;;;3.20;99.90;;;;;;5067698;28;20025;-79
2022/03/10 03:54:15;;;;;;;0.10;0.10;;;3.10;99.90;;;;;;5062315;28;20048;-79
2022/03/10 03:56:41;;;;;;;0.45;0.45;;;3.00;99.90;;;;;;5068351;28;20543;-79
2022/03/10 03:59:07;;;;;;;1.45;1.35;;;2.90;99.90;;;;;;5070277;28;20036;-79
2022/03/10 04:01:32;;;;;;;0.10;0.10;;;2.80;99.90;;;;;;5068932;28;20390;-80
2022/03/10 04:03:58;;;;;;;0.10;0.10;;;2.80;99.90;;;;;;5061946;28;20159;-77
2022/03/10 04:06:24;;;;;;;0.85;0.85;;;2.80;99.90;;;;;;5060176;28;20405;-80
2022/03/10 04:08:50;;;;;;;0.20;0.20;;;2.90;99.90;;;;;;5068035;28;20493;-79
2022/03/10 04:11:17;;;;;;;0.10;0.10;;;2.90;99.90;;;;;;5061990;28;20024;-79
2022/03/10 04:13:42;;;;;;;0.45;0.45;;;2.90;99.90;;;;;;5072596;28;20028;-79
2022/03/10 04:16:08;;;;;;;0.20;0.20;;;2.80;99.90;;;;;;5064919;28;20024;-80
2022/03/10 04:18:34;;;;;;;0.13;0.13;;;2.90;99.90;;;;;;5066995;28;20414;-80
2022/03/10 04:21:00;;;;;;;0.68;0.68;;;2.90;99.90;;;;;;5071051;28;20035;-79
2022/03/10 04:23:26;;;;;;;0.10;0.10;;;2.90;99.90;;;;;;5071334;28;20059;-79
2022/03/10 04:25:53;;;;;;;0.65;0.65;;;2.90;99.90;;;;;;5065832;28;20031;-80
2022/03/10 04:28:19;;;;;;;0.10;0.10;;;2.70;99.90;;;;;;5069578;28;20513;-79
2022/03/10 04:30:44;;;;;;;0.60;0.60;;;2.70;99.90;;;;;;5065201;28;20071;-78
2022/03/10 04:33:10;;;;;;;0.73;0.73;;;2.70;99.90;;;;;;5073464;28;20478;-79
2022/03/10 04:35:36;;;;;;;0.17;0.17;;;2.70;99.90;;;;;;5067548;28;20037;-79
2022/03/10 04:38:02;;;;;;;0.10;0.10;;;2.70;99.90;;;;;;5068862;28;20034;-80
2022/03/10 04:40:27;;;;;;;0.30;0.30;;;2.70;99.90;;;;;;5071451;28;20498;-79
2022/03/10 04:42:53;;;;;;;0.30;0.30;;;2.60;99.90;;;;;;5074608;28;20024;-79
2022/03/10 04:45:19;;;;;;;1.30;1.23;;;2.60;99.90;;;;;;5073893;28;20369;-79
2022/03/10 04:47:45;;;;;;;0.10;0.10;;;2.60;99.90;;;;;;5078838;28;20020;-80
2022/03/10 04:50:13;;;;;;;5.93;4.75;;;2.70;99.90;;;;;;5065827;28;20036;-79
2022/03/10 04:52:39;;;;;;;0.20;0.20;;;2.70;99.90;;;;;;5075066;28;20025;-79
2022/03/10 04:55:06;;;;;;;0.10;0.10;;;2.60;99.90;;;;;;5070789;28;20118;-80
2022/03/10 04:57:32;;;;;;;0.50;0.50;;;2.60;99.90;;;;;;5074012;28;20035;-79
2022/03/10 04:59:57;;;;;;;0.10;0.10;;;2.70;99.90;;;;;;5064227;28;20386;-79
2022/03/10 05:02:23;;;;;;;0.47;0.47;;;2.70;99.90;;;;;;5072596;28;20556;-78
2022/03/10 05:04:49;;;;;;;1.00;1.00;;;2.70;99.90;;;;;;5068758;28;20576;-79
2022/03/10 05:07:15;;;;;;;0.10;0.10;;;2.80;99.90;;;;;;5067941;28;20024;-80
2022/03/10 05:09:40;;;;;;;0.95;0.95;;;2.80;99.90;;;;;;5063581;28;20035;-79
2022/03/10 05:12:06;;;;;;;0.20;0.20;;;2.80;99.90;;;;;;5077956;28;20103;-79
2022/03/10 05:14:32;;;;;;;2.25;2.08;;;2.80;99.90;;;;;;5073906;28;20430;-79
2022/03/10 05:16:58;;;;;;;0.10;0.10;;;2.80;99.90;;;;;;5072174;28;20565;-79
2022/03/10 05:19:23;;;;;;;2.10;2.00;;;2.80;99.90;;;;;;5071737;28;20036;-80
2022/03/10 05:21:50;;;;;;;1.10;1.10;;;2.80;99.90;;;;;;5067550;28;20024;-79
2022/03/10 05:24:15;;;;;;;2.15;1.98;;;2.70;99.90;;;;;;5061733;28;20082;-79
2022/03/10 05:26:41;;;;;;;3.40;2.58;;;2.70;99.90;;;;;;5065820;28;20028;-79
2022/03/10 05:29:07;;;;;;;3.85;3.60;;;2.60;99.90;;;;;;5067311;28;20024;-78
2022/03/10 05:31:33;;;;;;;2.50;2.38;;;2.60;99.90;;;;;;5074005;28;20028;-79
2022/03/10 05:33:58;;;;;;;0.10;0.10;;;2.50;99.90;;;;;;5068193;28;20036;-80
2022/03/10 05:36:24;;;;;;;3.10;1.35;;;2.50;99.90;;;;;;5066777;28;20032;-81
2022/03/10 05:38:50;;;;;;;0.10;0.10;;;2.40;99.90;;;;;;5077480;28;20021;-80
2022/03/10 05:41:16;;;;;;;0.10;0.10;;;2.30;99.90;;;;;;5073943;28;20648;-80
2022/03/10 05:43:42;;;;;;;0.90;0.90;;;2.20;99.90;;;;;;5068455;28;20498;-79
2022/03/10 05:46:08;;;;;;;0.20;0.20;;;2.20;99.90;;;;;;5071887;28;20082;-80
2022/03/10 05:48:33;;;;;;;0.10;0.10;;;2.30;99.90;;;;;;5065628;28;20432;-78
2022/03/10 05:50:59;;;;;;;0.20;0.20;;;2.30;99.90;;;;;;5069751;28;20047;-79
2022/03/10 05:53:25;;;;;;;3.40;1.95;;;2.40;99.90;;;;;;5071082;28;20058;-81
2022/03/10 05:55:51;;;;;;;0.40;0.40;;;2.30;99.90;;;;;;5072780;28;20034;-80
2022/03/10 05:58:16;;;;;;;0.10;0.10;;;2.30;99.90;;;;;;5066367;28;20086;-80
2022/03/10 06:00:42;;;;;;;0.45;0.45;;;2.30;99.90;;;;;;5072901;28;20513;-80
2022/03/10 06:03:08;;;;;;;0.10;0.10;;;2.20;99.90;;;;;;5075091;28;20032;-80
2022/03/10 06:05:34;;;;;;;2.38;2.28;;;2.30;99.90;;;;;;5077317;28;20024;-81
2022/03/10 06:08:00;;;;;;;0.10;0.10;;;2.30;99.90;;;;;;5072160;28;20024;-80
2022/03/10 06:10:25;;;;;;;0.10;0.10;;;2.40;99.90;;;;;;5072399;28;20051;-80
2022/03/10 06:12:51;;;;;;;2.38;2.28;;;2.40;99.90;;;;;;5070459;28;20044;-81
2022/03/10 06:15:17;;;;;;;0.50;0.50;;;2.50;99.90;;;;;;5073248;28;20036;-80
2022/03/10 06:17:43;;;;;;;4.20;3.30;;;2.40;99.90;;;;;;5072668;28;20762;-80
2022/03/10 06:20:10;;;;;;;0.35;0.35;;;2.50;99.90;;;;;;5079440;28;20024;-81
2022/03/10 06:22:36;;;;;;;0.20;0.20;;;2.60;99.90;;;;;;5066837;28;20085;-79
2022/03/10 06:25:04;;;;;;;0.57;0.57;;;2.60;99.90;;;;;;5064415;28;20036;-79
2022/03/10 06:27:30;;;;;;;1.30;1.30;;;2.70;99.90;;;;;;5066018;28;20078;-80
2022/03/10 06:29:56;;;;;;;0.10;0.10;;;2.70;99.90;;;;;;5067415;28;20100;-79
2022/03/10 06:32:25;;;;;;;0.10;0.10;;;2.70;99.90;;;;;;5074880;28;20077;-80
2022/03/10 06:34:53;;;;;;;1.10;1.05;;;3.10;99.90;;;;;;5066916;28;20064;-78
2022/03/10 06:37:19;;;;;;;1.75;1.75;;;2.70;99.90;;;;;;5067143;28;20024;-80
2022/03/10 06:39:45;;;;;;;0.10;0.10;;;2.80;99.90;;;;;;5070193;28;20584;-80
2022/03/10 06:42:14;;;;;;;0.85;0.85;;;2.70;99.90;;;;;;5072365;28;20020;-82
2022/03/10 06:44:40;;;;;;;0.73;0.73;;;2.80;99.90;;;;;;5071327;28;20079;-82
2022/03/10 06:47:08;;;;;;;1.35;1.05;;;2.90;99.90;;;;;;5077582;28;20062;-79
2022/03/10 06:49:34;;;;;;;0.10;0.10;;;2.80;99.90;;;;;;5080435;28;20048;-78
2022/03/10 06:52:00;;;;;;;0.20;0.20;;;2.80;99.90;;;;;;5072808;28;20428;-81
2022/03/10 06:54:25;;;;;;;0.20;0.20;;;2.80;99.90;;;;;;5073225;28;20024;-80
2022/03/10 06:56:51;;;;;;;0.15;0.15;;;2.70;99.90;;;;;;5068323;28;20076;-82
2022/03/10 06:59:17;;;;;;;0.55;0.55;;;2.80;99.90;;;;;;5075957;28;20100;-79
2022/03/10 07:01:43;;;;;;;0.10;0.10;;;2.80;99.90;;;;;;5081417;28;20028;-80
2022/03/10 07:04:09;;;;;;;0.45;0.45;;;2.20;99.90;;;;;;5078280;28;20036;-78
2022/03/10 07:06:35;;;;;;;0.20;0.20;;;2.90;99.90;;;;;;5064122;28;20036;-79
2022/03/10 07:09:02;;;;;;;1.35;1.35;;;3.00;99.90;;;;;;5077583;28;20020;-79
2022/03/10 07:11:27;;;;;;;0.10;0.10;;;3.00;99.90;;;;;;5075881;28;20084;-83
2022/03/10 07:13:53;;;;;;;10.85;2.75;;;3.00;99.90;;;;;;5080900;28;20060;-82
2022/03/10 07:16:19;;;;;;;0.10;0.10;;;3.00;99.90;;;;;;5070793;28;20029;-82
2022/03/10 07:18:51;;;;;;;1.17;1.08;;;3.10;99.90;;;;;;5064183;28;20097;-83
2022/03/10 07:21:21;;;;;;;3.80;3.38;;;3.10;99.90;;;;;;5071192;28;20510;-81
2022/03/10 07:23:47;;;;;;;0.10;0.10;;;3.20;99.90;;;;;;5063633;28;20043;-81
2022/03/10 07:26:13;;;;;;;0.10;0.10;;;3.20;99.90;;;;;;5069047;28;20029;-80
2022/03/10 07:28:40;;;;;;;0.28;0.28;;;3.30;99.90;;;;;;5070870;28;20367;-80
2022/03/10 07:31:05;;;;;;;0.20;0.20;;;3.30;99.90;;;;;;5069967;28;20031;-81
2022/03/10 07:33:31;;;;;;;0.22;0.22;;;3.40;99.90;;;;;;5065029;28;20036;-83
2022/03/10 07:35:57;;;;;;;0.17;0.17;;;3.40;99.90;;;;;;5073398;28;20028;-79
2022/03/10 07:38:23;;;;;;;0.52;0.52;;;3.50;99.90;;;;;;5061487;28;20025;-79
2022/03/10 07:40:49;;;;;;;0.20;0.20;;;3.50;99.90;;;;;;5064739;28;20021;-79
2022/03/10 07:45:42;;;;;;;0.82;0.82;;;3.60;99.90;;;;;;5030573;28;20053;-78
2022/03/10 07:48:08;;;;;;;0.25;0.25;;;3.60;99.90;;;;;;5016693;28;20340;-80
2022/03/10 07:50:34;;;;;;;1.23;1.23;;;3.80;99.90;;;;;;5037153;28;20037;-78
2022/03/10 07:53:00;;;;;;;3.10;2.83;;;3.80;99.90;;;;;;5037300;28;20067;-80
2022/03/10 07:55:25;;;;;;;0.20;0.20;;;3.90;99.90;;;;;;5035040;28;20034;-84
2022/03/10 07:57:51;;;;;;;0.93;0.93;;;4.00;99.90;;;;;;5022632;28;20025;-78
2022/03/10 08:00:17;;;;;;;1.25;1.20;;;4.10;99.90;;;;;;5034072;28;20450;-79
2022/03/10 08:02:43;;;;;;;0.22;0.22;;;4.10;99.90;;;;;;5034529;28;20025;-79
2022/03/10 08:05:09;;;;;;;0.40;0.40;;;4.20;99.90;;;;;;5029203;28;20169;-80
2022/03/10 08:07:35;;;;;;;0.50;0.50;;;4.30;99.90;;;;;;5032644;28;20034;-78
2022/03/10 08:10:04;;;;;;;0.10;0.10;;;4.40;99.90;;;;;;5036569;28;20109;-78
2022/03/10 08:12:31;;;;;;;0.10;0.10;;;4.50;99.90;;;;;;5036633;28;20037;-80
2022/03/10 08:14:57;;;;;;;9.65;7.88;;;4.50;99.90;;;;;;5036608;28;20040;-78
2022/03/10 08:17:23;;;;;;;1.67;1.58;;;4.70;99.90;;;;;;5035599;28;20024;-80
2022/03/10 08:19:49;;;;;;;0.10;0.10;;;4.70;99.90;;;;;;5037543;28;20032;-82
2022/03/10 08:22:16;;;;;;;2.25;2.15;;;4.90;99.90;;;;;;5013031;28;20029;-78
2022/03/10 08:24:43;;;;;;;4.45;4.20;;;4.90;99.90;;;;;;5031228;28;20028;-76
2022/03/10 08:27:08;;;;;;;0.50;0.50;;;5.00;99.40;;;;;;5022330;28;20036;-79
2022/03/10 08:29:34;;;;;;;0.20;0.20;;;5.10;98.50;;;;;;5037744;28;20017;-80
2022/03/10 08:32:00;;;;;;;5.45;5.00;;;5.20;97.40;;;;;;5037538;28;20071;-76
2022/03/10 08:34:26;;;;;;;1.55;1.45;;;5.20;96.30;;;;;;5030775;28;20029;-84
2022/03/10 08:36:52;;;;;;;1.00;1.00;;;5.30;96.90;;;;;;5042325;28;20071;-85
2022/03/10 08:39:18;;;;;;;0.10;0.10;;;5.50;96.50;;;;;;5034197;28;20029;-84
2022/03/10 08:41:44;;;;;;;0.10;0.10;;;5.70;96.00;;;;;;5040944;28;20085;-84
2022/03/10 08:44:12;;;;;;;0.30;0.30;;;5.70;94.90;;;;;;5036455;28;20025;-83
2022/03/10 08:46:38;;;;;;;0.32;0.32;;;5.80;94.80;;;;;;5049289;28;20044;-84
2022/03/10 08:49:05;;;;;;;0.55;0.55;;;5.90;94.20;;;;;;5044154;28;20069;-84
2022/03/10 08:51:31;;;;;;;0.20;0.20;;;6.00;94.10;;;;;;5045645;28;20047;-84
2022/03/10 08:53:57;;;;;;;0.17;0.17;;;6.10;93.40;;;;;;5038074;28;20503;-80
2022/03/10 08:56:22;;;;;;;0.10;0.10;;;6.10;93.20;;;;;;5018310;28;20633;-80
2022/03/10 08:58:48;;;;;;;0.30;0.30;;;6.30;92.50;;;;;;5033390;28;20085;-80
2022/03/10 09:01:14;;;;;;;0.20;0.20;;;6.40;92.10;;;;;;5037050;28;20077;-79
2022/03/10 09:03:39;;;;;;;0.90;0.90;;;6.50;91.90;;;;;;5020690;28;20128;-79
2022/03/10 09:06:07;;;;;;;0.22;0.22;;;6.60;91.10;;;;;;5034639;28;20104;-79
2022/03/10 09:08:33;;;;;;;0.40;0.40;;;6.70;91.10;;;;;;5015568;28;20073;-79
2022/03/10 09:10:59;;;;;;;0.20;0.20;;;6.80;90.30;;;;;;5024061;28;20025;-80
2022/03/10 09:13:25;;;;;;;0.10;0.10;;;6.90;89.50;;;;;;5036215;28;20029;-80
2022/03/10 09:15:51;;;;;;;4.35;3.92;;;6.90;88.70;;;;;;5034632;28;20022;-81
2022/03/10 09:18:17;;;;;;;0.35;0.35;;;7.10;88.00;;;;;;5034660;28;20056;-79
2022/03/10 09:20:43;;;;;;;0.13;0.13;;;7.20;88.70;;;;;;5029810;28;20666;-80
2022/03/10 09:23:08;;;;;;;0.25;0.25;;;7.30;86.40;;;;;;5033573;28;20030;-79
2022/03/10 09:25:34;;;;;;;0.10;0.10;;;7.50;85.80;;;;;;5014047;28;20534;-79
2022/03/10 09:28:00;;;;;;;0.80;0.80;;;7.60;85.10;;;;;;5015252;28;20026;-79
2022/03/10 09:30:26;;;;;;;1.95;1.85;;;7.70;84.20;;;;;;5015103;28;20053;-80
2022/03/10 09:32:52;;;;;;;2.08;1.98;;;7.80;83.70;;;;;;5015947;28;20034;-78
2022/03/10 09:35:18;;;;;;;0.10;0.10;;;7.90;82.70;;;;;;5013697;28;20161;-79
2022/03/10 09:37:44;;;;;;;0.10;0.10;;;8.00;81.10;;;;;;5023648;28;20024;-80
2022/03/10 09:40:11;;;;;;;1.73;1.63;;;8.20;79.70;;;;;;5035336;28;20021;-80
2022/03/10 09:42:37;;;;;;;0.15;0.15;;;8.20;80.00;;;;;;5036799;28;20018;-80
2022/03/10 09:45:10;;;;;;;0.30;0.30;;;8.40;79.40;;;;;;5016771;28;20045;-80
2022/03/10 09:47:41;;;;;;;0.77;0.77;;;8.50;78.50;;;;;;5019291;28;20105;-83
2022/03/10 09:50:12;;;;;;;0.10;0.10;;;8.60;77.10;;;;;;5037604;28;20394;-81
2022/03/10 09:52:38;;;;;;;2.03;1.92;;;8.80;77.40;;;;;;5025769;28;20514;-79
2022/03/10 09:55:06;;;;;;;0.13;0.13;;;8.90;76.20;;;;;;5018344;28;20025;-81
2022/03/10 09:57:34;;;;;;;0.10;0.10;;;9.00;74.60;;;;;;5029325;28;20029;-81
2022/03/10 10:00:00;;;;;;;0.75;0.75;;;9.10;73.80;;;;;;5035135;28;20026;-82
2022/03/10 10:02:29;;;;;;;0.38;0.38;;;9.20;73.20;;;;;;5020041;28;20026;-80
2022/03/10 10:04:56;;;;;;;0.10;0.10;;;9.40;72.60;;;;;;5018560;28;20021;-80
2022/03/10 10:07:26;;;;;;;0.10;0.10;;;9.50;72.50;;;;;;5034875;28;20467;-80
2022/03/10 10:09:55;;;;;;;0.32;0.32;;;9.60;71.10;;;;;;5036897;28;20028;-81
2022/03/10 10:12:25;;;;;;;0.10;0.10;;;9.80;69.90;;;;;;5035966;28;20036;-81
2022/03/10 10:14:51;;;;;;;0.10;0.10;;;9.90;69.50;;;;;;5034850;28;20253;-79
2022/03/10 10:17:28;;;;;;;0.10;0.10;;;10.20;66.40;;;;;;5034848;28;20032;-78
2022/03/10 10:19:56;;;;;;;0.32;0.32;;;10.30;67.10;;;;;;5035360;28;20778;-82
2022/03/10 10:22:25;;;;;;;1.45;1.05;;;10.50;64.50;;;;;;5037497;28;20040;-80
2022/03/10 10:24:58;;;;;;;0.17;0.17;;;10.70;62.60;;;;;;5018553;28;20041;-82
2022/03/10 10:27:32;;;;;;;0.38;0.38;;;10.80;62.70;;;;;;5019504;28;20022;-82
2022/03/10 10:30:06;;;;;;;0.10;0.10;;;10.80;62.30;;;;;;5010749;28;20033;-78
2022/03/10 10:32:34;;;;;;;0.47;0.47;;;10.90;61.10;;;;;;5032612;28;20071;-81
2022/03/10 10:35:08;;;;;;;0.10;0.10;;;11.00;60.30;;;;;;5038684;28;20013;-81
2022/03/10 10:37:38;;;;;;;0.10;0.10;;;11.10;59.90;;;;;;5020436;28;20026;-81
2022/03/10 10:40:06;;;;;;;0.10;0.10;;;11.20;59.80;;;;;;5039039;28;20059;-81
2022/03/10 10:42:38;;;;;;;0.22;0.22;;;11.20;59.40;;;;;;5031113;28;20025;-81
2022/03/10 10:45:27;;;;;;;2.95;2.75;;;11.40;58.20;;;;;;5039414;28;20037;-80
2022/03/10 10:48:11;;;;;;;0.10;0.10;;;11.40;57.70;;;;;;5041971;28;20036;-83
2022/03/10 10:50:43;;;;;;;0.10;0.10;;;11.50;57.10;;;;;;5041520;28;20048;-81
2022/03/10 10:53:32;;;;;;;0.55;0.55;;;11.60;55.90;;;;;;5032921;28;20021;-82
2022/03/10 10:55:58;;;;;;;0.10;0.10;;;11.80;54.80;;;;;;5039504;28;20085;-81
2022/03/10 10:58:25;;;;;;;1.20;1.10;;;12.00;54.60;;;;;;5050231;28;20060;-81
2022/03/10 11:00:51;;;;;;;0.10;0.10;;;12.10;53.60;;;;;;5060514;28;20021;-84
2022/03/10 11:03:22;;;;;;;0.25;0.25;;;12.20;53.40;;;;;;5041170;28;20100;-80
2022/03/10 11:05:48;;;;;;;1.08;1.05;;;12.20;52.90;;;;;;5036386;28;20013;-79
2022/03/10 11:08:16;;;;;;;7.97;4.00;;;12.30;52.70;;;;;;5038010;28;20067;-80
2022/03/10 11:10:42;;;;;;;2.03;1.90;;;12.40;52.00;;;;;;5037573;28;20021;-81
2022/03/10 11:13:08;;;;;;;0.10;0.10;;;12.50;51.40;;;;;;5037415;28;20053;-80
2022/03/10 11:15:34;;;;;;;0.13;0.13;;;12.70;50.70;;;;;;5037094;28;20450;-79
2022/03/10 11:18:03;;;;;;;0.10;0.10;;;12.60;49.20;;;;;;5039501;28;20026;-81
2022/03/10 11:20:30;;;;;;;0.10;0.10;;;12.70;49.00;;;;;;5040794;28;20033;-83
2022/03/10 11:23:18;;;;;;;0.10;0.10;;;12.70;48.80;;;;;;5042877;28;20022;-82
2022/03/10 11:25:58;;;;;;;0.10;0.10;;;12.80;48.40;;;;;;5044472;28;20033;-80
2022/03/10 11:28:28;;;;;;;0.10;0.10;;;12.80;47.90;;;;;;5030596;28;20026;-84
2022/03/10 11:30:55;;;;;;;0.10;0.10;;;12.90;47.50;;;;;;5050442;28;20029;-83
2022/03/10 11:33:35;;;;;;;0.10;0.10;;;12.90;47.50;;;;;;5048592;28;20534;-84
2022/03/10 11:36:27;;;;;;;0.10;0.10;;;13.00;46.70;;;;;;5044864;28;20057;-84
2022/03/10 11:39:08;;;;;;;0.10;0.10;;;13.10;46.90;;;;;;5045778;28;20033;-84
2022/03/10 11:41:45;;;;;;;0.10;0.10;;;13.10;46.60;;;;;;5031835;28;20052;-85
2022/03/10 11:44:11;;;;;;;0.10;0.10;;;13.10;46.30;;;;;;5052791;28;20025;-85
2022/03/10 11:46:55;;;;;;;0.10;0.10;;;13.20;46.20;;;;;;5035059;28;20051;-80
2022/03/10 11:49:20;;;;;;;0.10;0.10;;;13.20;45.90;;;;;;5045384;28;20431;-80
2022/03/10 11:51:52;;;;;;;1.17;1.10;;;13.20;45.90;;;;;;5039742;28;20036;-77
2022/03/10 11:54:21;;;;;;;0.10;0.10;;;13.20;45.60;;;;;;5032642;28;20097;-77
2022/03/10 11:56:52;;;;;;;0.10;0.10;;;13.30;45.10;;;;;;5034812;28;20033;-80
2022/03/10 11:59:25;;;;;;;0.20;0.20;;;13.30;44.50;;;;;;5023121;28;20025;-77
2022/03/10 12:01:51;;;;;;;0.50;0.50;;;13.30;44.80;;;;;;5038107;28;20028;-80
2022/03/10 12:04:18;;;;;;;0.10;0.10;;;13.30;44.50;;;;;;5038995;28;20022;-80
2022/03/10 12:06:49;;;;;;;0.10;0.10;;;13.30;44.00;;;;;;5039463;28;20021;-80
2022/03/10 12:09:26;;;;;;;0.10;0.10;;;13.30;43.30;;;;;;5040234;28;20030;-80
2022/03/10 12:11:52;;;;;;;0.10;0.10;;;13.30;43.40;;;;;;5034405;28;20036;-77
2022/03/10 12:14:29;;;;;;;1.30;1.27;;;13.40;43.20;;;;;;5030048;28;20079;-79
2022/03/10 12:16:55;;;;;;;0.10;0.10;;;13.40;43.00;;;;;;5028078;28;20483;-78
2022/03/10 12:19:58;;;;;;;0.10;0.10;;;13.50;43.20;;;;;;5030570;28;20052;-77
2022/03/10 12:22:28;;;;;;;0.10;0.10;;;13.50;42.70;;;;;;5031659;28;20532;-83
2022/03/10 12:25:20;;;;;;;0.10;0.10;;;13.50;42.50;;;;;;5034397;28;20028;-86
2022/03/10 12:27:50;;;;;;;0.10;0.10;;;13.50;42.50;;;;;;5036501;28;20018;-79
2022/03/10 12:30:20;;;;;;;0.10;0.10;;;13.50;43.10;;;;;;5032166;28;20089;-78
2022/03/10 12:32:53;;;;;;;0.10;0.10;;;13.50;42.20;;;;;;5029312;28;20022;-78
2022/03/10 12:35:27;;;;;;;0.10;0.10;;;13.30;42.00;;;;;;5030661;28;20601;-78
2022/03/10 12:37:53;;;;;;;0.10;0.10;;;13.60;42.00;;;;;;5027734;28;20037;-79
2022/03/10 12:40:21;;;;;;;0.10;0.10;;;13.60;42.00;;;;;;5031467;28;20038;-79
2022/03/10 12:42:47;;;;;;;0.10;0.10;;;13.60;41.60;;;;;;5037541;28;20021;-77
2022/03/10 12:45:19;;;;;;;0.10;0.10;;;13.50;41.00;;;;;;5033198;28;20438;-78
2022/03/10 12:47:53;;;;;;;0.10;0.10;;;13.50;41.80;;;;;;5037999;28;20509;-77
2022/03/10 12:50:19;;;;;;;0.10;0.10;;;13.60;41.90;;;;;;5039084;28;20030;-78
2022/03/10 12:52:45;;;;;;;0.10;0.10;;;13.60;40.90;;;;;;5038903;28;20099;-78
2022/03/10 12:55:11;;;;;;;0.10;0.10;;;13.50;40.80;;;;;;5044623;28;20479;-80
2022/03/10 12:57:39;;;;;;;0.10;0.10;;;13.70;40.40;;;;;;5024462;28;20045;-79
2022/03/10 13:00:18;;;;;;;0.10;0.10;;;13.70;40.00;;;;;;5039622;28;20026;-81
2022/03/10 13:02:44;;;;;;;0.10;0.10;;;13.90;39.50;;;;;;5016509;28;20312;-80
2022/03/10 13:05:13;;;;;;;0.10;0.10;;;14.10;39.50;;;;;;5040024;28;20030;-79